createdAt,value
2019-05-09T00:01:35.105Z,9.20
2019-05-09T00:04:04.823Z,9.10
2019-05-09T00:06:34.265Z,9.00
2019-05-09T00:09:04.514Z,9.00
2019-05-09T00:11:33.915Z,8.90
2019-05-09T00:14:04.407Z,8.90
2019-05-09T00:16:34.148Z,8.80
2019-05-09T00:19:03.667Z,8.80
2019-05-09T00:21:37.499Z,8.70
2019-05-09T00:24:08.390Z,8.70
2019-05-09T00:26:37.769Z,8.60
2019-05-09T00:29:11.465Z,8.50
2019-05-09T00:31:46.891Z,8.50
2019-05-09T00:34:17.901Z,8.50
2019-05-09T00:36:47.287Z,8.50
2019-05-09T00:39:16.661Z,8.50
2019-05-09T00:41:46.034Z,8.40
2019-05-09T00:44:23.262Z,8.50
2019-05-09T00:46:54.404Z,8.50
2019-05-09T00:49:25.575Z,8.50
2019-05-09T00:51:54.987Z,8.50
2019-05-09T00:54:24.387Z,8.50
2019-05-09T00:56:54.018Z,8.50
2019-05-09T00:59:24.074Z,8.50
2019-05-09T01:01:54.385Z,8.50
2019-05-09T01:04:24.257Z,8.50
2019-05-09T01:06:54.115Z,8.60
2019-05-09T01:09:24.221Z,8.60
2019-05-09T01:11:53.757Z,8.60
2019-05-09T01:14:23.621Z,8.60
2019-05-09T01:16:53.635Z,8.60
2019-05-09T01:19:23.419Z,8.60
2019-05-09T01:21:54.247Z,8.70
2019-05-09T01:24:23.727Z,8.70
2019-05-09T01:26:54.233Z,8.70
2019-05-09T01:29:23.761Z,8.60
2019-05-09T01:31:54.791Z,8.60
2019-05-09T01:34:25.749Z,8.60
2019-05-09T01:37:04.188Z,8.60
2019-05-09T01:39:53.349Z,8.60
2019-05-09T01:42:23.345Z,8.60
2019-05-09T01:44:53.338Z,8.50
2019-05-09T01:47:27.565Z,8.60
2019-05-09T01:49:56.924Z,8.50
2019-05-09T01:52:26.314Z,8.50
2019-05-09T01:54:55.680Z,8.50
2019-05-09T01:57:25.057Z,8.50
2019-05-09T01:59:54.706Z,8.50
2019-05-09T02:02:24.070Z,8.50
2019-05-09T02:04:53.598Z,8.50
2019-05-09T02:07:23.740Z,8.50
2019-05-09T02:09:54.020Z,8.50
2019-05-09T02:12:24.594Z,8.50
2019-05-09T02:15:19.851Z,8.40
2019-05-09T02:18:04.240Z,8.40
2019-05-09T02:20:32.725Z,8.40
2019-05-09T02:23:03.641Z,8.40
2019-05-09T02:25:33.502Z,8.30
2019-05-09T02:28:03.516Z,8.30
2019-05-09T02:30:36.103Z,8.20
2019-05-09T02:33:05.098Z,8.20
2019-05-09T02:35:41.631Z,8.20
2019-05-09T02:38:09.144Z,8.20
2019-05-09T02:40:39.322Z,8.20
2019-05-09T02:43:09.897Z,8.20
2019-05-09T02:45:47.871Z,8.20
2019-05-09T02:48:14.359Z,8.30
2019-05-09T02:50:43.743Z,8.30
2019-05-09T02:53:13.186Z,8.30
2019-05-09T02:55:42.586Z,8.40
2019-05-09T02:58:13.595Z,8.40
2019-05-09T03:00:44.627Z,8.50
2019-05-09T03:03:15.628Z,8.50
2019-05-09T03:05:45.149Z,8.60
2019-05-09T03:08:18.976Z,8.70
2019-05-09T03:10:49.223Z,8.80
2019-05-09T03:13:19.315Z,8.90
2019-05-09T03:15:50.564Z,8.90
2019-05-09T03:18:19.949Z,9.00
2019-05-09T03:20:50.979Z,9.00
2019-05-09T03:23:20.445Z,9.00
2019-05-09T03:25:49.882Z,9.00
2019-05-09T03:28:39.042Z,9.00
2019-05-09T03:31:10.138Z,9.00
2019-05-09T03:33:41.303Z,9.00
2019-05-09T03:36:12.302Z,9.10
2019-05-09T03:38:41.700Z,9.10
2019-05-09T03:41:11.369Z,9.10
2019-05-09T03:43:40.765Z,9.10
2019-05-09T03:46:11.847Z,9.10
2019-05-09T03:48:42.873Z,9.10
2019-05-09T03:51:12.251Z,9.10
2019-05-09T03:53:41.649Z,9.10
2019-05-09T03:56:12.655Z,9.10
2019-05-09T03:58:42.052Z,9.10
2019-05-09T04:01:11.475Z,9.20
2019-05-09T04:03:40.827Z,9.20
2019-05-09T04:06:10.230Z,9.20
2019-05-09T04:08:39.583Z,9.20
2019-05-09T04:11:11.044Z,9.20
2019-05-09T04:13:44.718Z,9.20
2019-05-09T04:16:14.111Z,9.30
2019-05-09T04:18:43.534Z,9.40
2019-05-09T04:21:12.934Z,9.40
2019-05-09T04:23:42.345Z,9.40
2019-05-09T04:26:22.402Z,9.40
2019-05-09T04:28:51.779Z,9.40
2019-05-09T04:31:21.291Z,9.30
2019-05-09T04:33:50.680Z,9.20
2019-05-09T04:36:21.668Z,9.20
2019-05-09T04:38:51.061Z,9.20
2019-05-09T04:41:23.842Z,9.20
2019-05-09T04:43:51.498Z,9.10
2019-05-09T04:46:24.307Z,9.10
2019-05-09T04:48:53.995Z,9.10
2019-05-09T04:51:23.026Z,9.20
2019-05-09T04:53:52.403Z,9.20
2019-05-09T04:56:23.398Z,9.30
2019-05-09T04:58:55.602Z,9.30
2019-05-09T05:01:28.183Z,9.40
2019-05-09T05:03:58.599Z,9.50
2019-05-09T05:06:28.211Z,9.60
2019-05-09T05:08:58.611Z,9.60
2019-05-09T05:11:28.202Z,9.70
2019-05-09T05:13:58.597Z,9.90
2019-05-09T05:16:28.256Z,10.10
2019-05-09T05:18:58.371Z,10.30
2019-05-09T05:21:28.713Z,10.50
2019-05-09T05:24:00.101Z,10.50
2019-05-09T05:26:29.540Z,10.60
2019-05-09T05:28:58.940Z,10.70
2019-05-09T05:31:28.675Z,10.80
2019-05-09T05:34:02.436Z,10.90
2019-05-09T05:36:32.451Z,11.00
2019-05-09T05:39:01.802Z,11.10
2019-05-09T05:41:31.164Z,11.20
2019-05-09T05:44:00.541Z,11.20
2019-05-09T05:46:31.546Z,11.20
2019-05-09T05:49:00.929Z,11.20
2019-05-09T05:51:31.939Z,11.30
2019-05-09T05:54:01.933Z,11.30
2019-05-09T05:56:31.293Z,11.30
2019-05-09T05:59:00.687Z,11.30
2019-05-09T06:01:30.056Z,11.20
2019-05-09T06:03:59.461Z,11.10
2019-05-09T06:06:28.869Z,11.00
2019-05-09T06:08:58.244Z,10.90
2019-05-09T06:11:28.245Z,10.80
2019-05-09T06:14:06.295Z,10.80
2019-05-09T06:16:28.800Z,10.80
2019-05-09T06:18:58.713Z,10.80
2019-05-09T06:21:28.514Z,10.80
2019-05-09T06:23:58.548Z,10.90
2019-05-09T06:26:29.192Z,10.90
2019-05-09T06:28:58.832Z,10.80
2019-05-09T06:31:28.575Z,10.80
2019-05-09T06:33:58.052Z,10.90
2019-05-09T06:36:28.336Z,10.90
2019-05-09T06:38:59.184Z,11.00
2019-05-09T06:41:28.808Z,11.10
2019-05-09T06:44:14.183Z,11.20
2019-05-09T06:46:41.420Z,11.10
2019-05-09T06:49:24.802Z,11.10
2019-05-09T06:51:43.538Z,11.20
2019-05-09T06:54:12.916Z,11.20
2019-05-09T06:56:42.265Z,11.30
2019-05-09T06:59:11.716Z,11.40
2019-05-09T07:01:42.774Z,11.60
2019-05-09T07:04:13.813Z,11.90
2019-05-09T07:06:51.080Z,12.10
2019-05-09T07:09:31.100Z,12.20
2019-05-09T07:12:01.351Z,12.30
2019-05-09T07:14:39.101Z,12.20
2019-05-09T07:17:08.202Z,12.20
2019-05-09T07:19:38.294Z,12.20
2019-05-09T07:22:15.388Z,12.30
2019-05-09T07:25:06.556Z,12.30
2019-05-09T07:27:35.764Z,12.40
2019-05-09T07:30:11.556Z,12.40
2019-05-09T07:32:45.084Z,12.30
2019-05-09T07:35:18.403Z,12.30
2019-05-09T07:37:48.801Z,12.30
2019-05-09T07:40:21.251Z,12.30
2019-05-09T07:42:50.625Z,12.30
2019-05-09T07:45:20.002Z,12.20
2019-05-09T07:47:49.379Z,12.20
2019-05-09T07:50:19.243Z,12.10
2019-05-09T07:52:48.682Z,12.10
2019-05-09T07:55:18.314Z,12.10
2019-05-09T07:57:55.148Z,12.10
2019-05-09T08:00:33.220Z,12.20
2019-05-09T08:03:03.104Z,12.20
2019-05-09T08:05:32.612Z,12.30
2019-05-09T08:08:01.987Z,12.20
2019-05-09T08:10:33.200Z,12.10
2019-05-09T08:13:02.635Z,12.00
2019-05-09T08:15:32.029Z,12.00
2019-05-09T08:18:01.455Z,12.00
2019-05-09T08:20:30.921Z,12.10
2019-05-09T08:23:02.216Z,12.20
2019-05-09T08:25:31.369Z,12.20
2019-05-09T08:28:01.014Z,12.30
2019-05-09T08:30:35.795Z,12.40
2019-05-09T08:33:01.487Z,12.40
2019-05-09T08:35:30.905Z,12.40
2019-05-09T08:38:00.391Z,12.30
2019-05-09T08:40:29.789Z,12.30
2019-05-09T08:42:59.245Z,12.20
2019-05-09T08:45:31.470Z,12.10
2019-05-09T08:48:01.433Z,12.00
2019-05-09T08:50:32.435Z,12.10
2019-05-09T08:53:01.842Z,12.10
2019-05-09T08:55:31.286Z,12.10
2019-05-09T08:58:00.749Z,12.10
2019-05-09T09:00:30.215Z,12.10
2019-05-09T09:03:01.277Z,12.10
2019-05-09T09:05:30.685Z,12.10
2019-05-09T09:08:00.078Z,12.20
2019-05-09T09:10:29.549Z,12.30
2019-05-09T09:12:59.146Z,12.30
2019-05-09T09:15:54.559Z,12.20
2019-05-09T09:17:59.729Z,12.20
2019-05-09T09:20:29.191Z,12.10
2019-05-09T09:22:58.618Z,12.10
2019-05-09T09:25:28.673Z,12.10
2019-05-09T09:27:58.530Z,12.00
2019-05-09T09:30:29.237Z,11.90
2019-05-09T09:32:59.156Z,11.80
2019-05-09T09:35:28.607Z,11.80
2019-05-09T09:37:58.310Z,11.60
2019-05-09T09:40:28.080Z,11.50
2019-05-09T09:42:58.229Z,11.50
2019-05-09T09:45:28.254Z,11.50
2019-05-09T09:47:59.153Z,11.50
2019-05-09T09:50:28.783Z,11.40
2019-05-09T09:52:59.041Z,11.40
2019-05-09T09:55:28.522Z,11.30
2019-05-09T09:57:58.126Z,11.30
2019-05-09T10:00:54.739Z,11.30
2019-05-09T10:03:25.752Z,11.30
2019-05-09T10:05:57.562Z,11.50
2019-05-09T10:08:26.389Z,11.50
2019-05-09T10:10:58.652Z,11.60
2019-05-09T10:13:28.571Z,11.70
2019-05-09T10:15:59.708Z,11.80
2019-05-09T10:18:46.578Z,12.00
2019-05-09T10:21:17.652Z,12.10
2019-05-09T10:23:48.379Z,12.20
2019-05-09T10:26:17.949Z,12.20
2019-05-09T10:28:48.534Z,12.20
2019-05-09T10:31:18.136Z,12.20
2019-05-09T10:33:48.194Z,12.10
2019-05-09T10:36:17.809Z,12.10
2019-05-09T10:38:47.805Z,12.10
2019-05-09T10:41:17.443Z,12.20
2019-05-09T10:43:51.149Z,12.30
2019-05-09T10:46:52.568Z,12.50
2019-05-09T10:49:11.058Z,12.60
2019-05-09T10:51:40.587Z,12.60
2019-05-09T10:54:10.018Z,12.60
2019-05-09T10:56:39.392Z,12.70
2019-05-09T10:59:08.820Z,12.70
2019-05-09T11:01:38.480Z,12.70
2019-05-09T11:04:08.415Z,12.70
2019-05-09T11:06:38.402Z,12.70
2019-05-09T11:09:09.647Z,12.70
2019-05-09T11:11:39.165Z,12.70
2019-05-09T11:14:08.835Z,12.70
2019-05-09T11:16:45.858Z,12.80
2019-05-09T11:19:09.481Z,12.80
2019-05-09T11:21:39.353Z,12.80
2019-05-09T11:24:10.397Z,13.00
2019-05-09T11:26:40.141Z,13.10
2019-05-09T11:29:09.604Z,13.20
2019-05-09T11:31:39.064Z,13.20
2019-05-09T11:34:09.088Z,13.10
2019-05-09T11:36:38.552Z,13.20
2019-05-09T11:39:10.584Z,13.10
2019-05-09T11:41:39.539Z,13.00
2019-05-09T11:44:08.989Z,12.90
2019-05-09T11:46:38.530Z,12.80
2019-05-09T11:49:08.603Z,12.80
2019-05-09T11:51:38.103Z,12.70
2019-05-09T11:54:09.146Z,12.70
2019-05-09T11:56:38.737Z,12.70
2019-05-09T11:59:08.152Z,12.60
2019-05-09T12:01:39.718Z,12.60
2019-05-09T12:04:09.588Z,12.60
2019-05-09T12:06:39.108Z,12.60
2019-05-09T12:09:09.437Z,12.60
2019-05-09T12:11:44.439Z,12.60
2019-05-09T12:14:11.593Z,12.60
2019-05-09T12:16:40.994Z,12.60
2019-05-09T12:19:10.443Z,12.60
2019-05-09T12:21:47.548Z,12.60
2019-05-09T12:24:10.929Z,12.60
2019-05-09T12:26:41.871Z,12.60
2019-05-09T12:29:11.248Z,12.60
2019-05-09T12:31:40.559Z,12.60
2019-05-09T12:34:09.969Z,12.70
2019-05-09T12:36:40.001Z,12.70
2019-05-09T12:39:09.537Z,12.80
2019-05-09T12:41:39.007Z,12.80
2019-05-09T12:44:09.036Z,12.80
2019-05-09T12:46:39.979Z,12.80
2019-05-09T12:49:09.440Z,12.80
2019-05-09T12:51:38.808Z,12.80
2019-05-09T12:54:08.737Z,12.90
2019-05-09T12:56:38.865Z,13.10
2019-05-09T12:59:08.912Z,13.30
2019-05-09T13:01:40.951Z,13.40
2019-05-09T13:04:09.954Z,13.40
2019-05-09T13:06:39.364Z,13.40
2019-05-09T13:09:08.846Z,13.40
2019-05-09T13:11:39.048Z,13.30
2019-05-09T13:14:10.021Z,13.40
2019-05-09T13:16:48.913Z,13.50
2019-05-09T13:19:18.295Z,13.60
2019-05-09T13:21:46.913Z,13.80
2019-05-09T13:24:19.465Z,14.00
2019-05-09T13:26:51.834Z,14.10
2019-05-09T13:29:23.411Z,14.20
2019-05-09T13:31:52.769Z,14.10
2019-05-09T13:34:22.177Z,14.10
2019-05-09T13:36:51.542Z,13.90
2019-05-09T13:39:20.906Z,13.80
2019-05-09T13:41:50.408Z,13.60
2019-05-09T13:44:19.909Z,13.50
2019-05-09T13:46:49.420Z,13.50
2019-05-09T13:49:19.402Z,13.50
2019-05-09T13:51:58.582Z,13.60
2019-05-09T13:54:20.393Z,13.90
2019-05-09T13:56:56.593Z,14.50
2019-05-09T13:59:21.253Z,15.20
2019-05-09T14:01:50.822Z,16.10
2019-05-09T14:04:20.320Z,16.90
2019-05-09T14:06:49.983Z,17.60
2019-05-09T14:09:20.062Z,17.80
2019-05-09T14:11:51.993Z,18.10
2019-05-09T14:14:21.482Z,18.40
2019-05-09T14:16:50.850Z,18.80
2019-05-09T14:19:31.321Z,19.00
2019-05-09T14:21:51.390Z,19.00
2019-05-09T14:24:20.796Z,19.20
2019-05-09T14:26:50.242Z,19.60
2019-05-09T14:29:23.390Z,20.00
2019-05-09T14:31:53.232Z,20.50
2019-05-09T14:34:23.955Z,20.70
2019-05-09T14:36:53.433Z,20.20
2019-05-09T14:39:22.941Z,19.60
2019-05-09T14:41:52.344Z,18.60
2019-05-09T14:44:21.707Z,18.30
2019-05-09T14:46:51.133Z,18.40
2019-05-09T14:49:20.631Z,18.80
2019-05-09T14:51:50.251Z,18.80
2019-05-09T14:54:19.656Z,18.50
2019-05-09T14:56:48.975Z,18.20
2019-05-09T14:59:18.761Z,18.90
2019-05-09T15:01:49.580Z,19.60
2019-05-09T15:04:19.267Z,19.50
2019-05-09T15:06:48.876Z,19.00
2019-05-09T15:09:18.478Z,17.70
2019-05-09T15:11:48.547Z,17.60
2019-05-09T15:14:18.332Z,17.60
2019-05-09T15:16:48.511Z,17.60
2019-05-09T15:19:18.460Z,17.70
2019-05-09T15:21:48.665Z,17.60
2019-05-09T15:24:19.159Z,18.30
2019-05-09T15:26:48.975Z,18.10
2019-05-09T15:29:18.544Z,17.50
2019-05-09T15:31:54.471Z,17.20
2019-05-09T15:34:19.069Z,17.40
2019-05-09T15:36:48.551Z,17.70
2019-05-09T15:39:18.472Z,18.00
2019-05-09T15:41:48.072Z,17.60
2019-05-09T15:44:18.737Z,17.50
2019-05-09T15:46:49.946Z,17.50
2019-05-09T15:49:19.302Z,17.60
2019-05-09T15:51:48.673Z,17.70
2019-05-09T15:54:18.074Z,18.30
2019-05-09T15:56:48.339Z,18.30
2019-05-09T15:59:18.760Z,18.40
2019-05-09T16:01:49.743Z,18.30
2019-05-09T16:04:19.389Z,18.30
2019-05-09T16:06:51.025Z,19.20
2019-05-09T16:09:19.909Z,20.80
2019-05-09T16:11:49.299Z,20.90
2019-05-09T16:14:18.741Z,20.60
2019-05-09T16:16:48.174Z,19.70
2019-05-09T16:19:17.709Z,18.80
2019-05-09T16:21:47.865Z,17.90
2019-05-09T16:24:18.847Z,17.20
2019-05-09T16:26:50.184Z,16.60
2019-05-09T16:29:19.569Z,15.80
2019-05-09T16:31:49.047Z,15.30
2019-05-09T16:34:18.451Z,14.90
2019-05-09T16:36:48.209Z,14.80
2019-05-09T16:39:18.048Z,14.80
2019-05-09T16:41:49.080Z,14.60
2019-05-09T16:44:18.742Z,14.40
2019-05-09T16:46:48.785Z,14.30
2019-05-09T16:49:19.805Z,14.30
2019-05-09T16:51:50.472Z,14.40
2019-05-09T16:54:21.928Z,14.40
2019-05-09T16:56:51.292Z,14.40
2019-05-09T16:59:21.293Z,14.50
2019-05-09T17:01:50.745Z,14.60
2019-05-09T17:04:20.290Z,15.10
2019-05-09T17:06:49.989Z,15.20
2019-05-09T17:09:19.442Z,15.20
2019-05-09T17:11:48.908Z,15.20
2019-05-09T17:14:19.272Z,15.10
2019-05-09T17:16:52.561Z,14.90
2019-05-09T17:19:19.966Z,14.80
2019-05-09T17:22:07.721Z,14.80
2019-05-09T17:24:37.983Z,14.70
2019-05-09T17:27:08.682Z,14.60
2019-05-09T17:29:38.447Z,14.50
2019-05-09T17:32:08.138Z,14.40
2019-05-09T17:34:38.150Z,14.30
2019-05-09T17:37:08.107Z,14.30
2019-05-09T17:39:38.627Z,14.30
2019-05-09T17:42:09.433Z,14.30
2019-05-09T17:44:38.787Z,14.30
2019-05-09T17:47:08.372Z,14.30
2019-05-09T17:49:37.855Z,14.30
2019-05-09T17:52:07.686Z,14.20
2019-05-09T17:54:37.930Z,14.10
2019-05-09T17:57:08.127Z,14.10
2019-05-09T17:59:39.197Z,14.00
2019-05-09T18:02:09.463Z,13.90
2019-05-09T18:04:38.848Z,13.80
2019-05-09T18:07:08.896Z,13.80
2019-05-09T18:09:40.010Z,13.60
2019-05-09T18:12:09.394Z,13.60
2019-05-09T18:14:39.062Z,13.60
2019-05-09T18:17:08.630Z,13.50
2019-05-09T18:19:38.227Z,13.50
2019-05-09T18:22:08.188Z,13.50
2019-05-09T18:24:37.837Z,13.20
2019-05-09T18:27:07.759Z,13.20
2019-05-09T18:29:38.034Z,13.10
2019-05-09T18:32:09.211Z,13.10
2019-05-09T18:34:38.663Z,13.10
2019-05-09T18:37:08.267Z,13.00
2019-05-09T18:39:37.748Z,12.90
2019-05-09T18:42:08.732Z,12.80
2019-05-09T18:44:38.231Z,12.70
2019-05-09T18:47:07.926Z,12.70
2019-05-09T18:49:37.373Z,12.70
2019-05-09T18:52:06.842Z,12.70
2019-05-09T18:54:36.238Z,12.60
2019-05-09T18:57:05.771Z,12.60
2019-05-09T18:59:35.349Z,12.60
2019-05-09T19:02:05.651Z,12.50
2019-05-09T19:04:35.011Z,12.50
2019-05-09T19:07:04.583Z,12.50
2019-05-09T19:09:35.009Z,12.60
2019-05-09T19:12:04.519Z,12.60
2019-05-09T19:14:37.304Z,12.60
2019-05-09T19:17:11.441Z,12.60
2019-05-09T19:19:44.896Z,12.60
2019-05-09T19:22:22.101Z,12.50
2019-05-09T19:24:45.514Z,12.50
2019-05-09T19:27:14.876Z,12.60
2019-05-09T19:29:45.026Z,12.50
2019-05-09T19:32:14.612Z,12.60
2019-05-09T19:34:44.008Z,12.70
2019-05-09T19:37:13.501Z,12.70
2019-05-09T19:39:42.920Z,12.70
2019-05-09T19:42:12.368Z,12.70
2019-05-09T19:44:41.851Z,12.70
2019-05-09T19:47:15.853Z,12.70
2019-05-09T19:49:48.021Z,12.60
2019-05-09T19:52:17.542Z,12.60
2019-05-09T19:54:46.968Z,12.50
2019-05-09T19:57:16.363Z,12.50
2019-05-09T19:59:45.772Z,12.40
2019-05-09T20:02:15.248Z,12.40
2019-05-09T20:04:45.109Z,12.30
2019-05-09T20:07:14.792Z,12.30
2019-05-09T20:09:51.365Z,12.30
2019-05-09T20:12:25.568Z,12.20
2019-05-09T20:14:56.711Z,12.20
2019-05-09T20:17:26.322Z,12.20
2019-05-09T20:19:56.043Z,12.10
2019-05-09T20:25:04.147Z,12.00
2019-05-09T20:27:33.564Z,12.00
2019-05-09T20:30:03.732Z,12.00
2019-05-09T20:32:33.134Z,11.90
2019-05-09T20:35:02.811Z,11.70
2019-05-09T20:37:32.679Z,11.60
2019-05-09T20:40:02.320Z,11.60
2019-05-09T20:42:32.106Z,11.60
2019-05-09T20:45:02.195Z,11.50
2019-05-09T20:47:31.758Z,11.50
2019-05-09T20:50:01.349Z,11.40
2019-05-09T20:52:30.913Z,11.40
2019-05-09T20:55:00.461Z,11.40
2019-05-09T20:57:31.654Z,11.30
2019-05-09T21:00:01.293Z,11.30
2019-05-09T21:02:30.976Z,11.40
2019-05-09T21:05:00.583Z,11.40
2019-05-09T21:07:30.726Z,11.50
2019-05-09T21:10:00.346Z,11.40
2019-05-09T21:12:30.157Z,11.40
2019-05-09T21:14:59.801Z,11.30
2019-05-09T21:17:29.354Z,11.30
2019-05-09T21:19:58.918Z,11.30
2019-05-09T21:22:28.594Z,11.30
2019-05-09T21:25:07.864Z,11.40
2019-05-09T21:27:49.373Z,11.30
2019-05-09T21:30:19.597Z,11.40
2019-05-09T21:32:49.177Z,11.40
2019-05-09T21:35:18.573Z,11.40
2019-05-09T21:37:47.995Z,11.30
2019-05-09T21:40:17.776Z,11.40
2019-05-09T21:42:47.160Z,11.40
2019-05-09T21:45:16.695Z,11.40
2019-05-09T21:47:46.073Z,11.40
2019-05-09T21:50:15.790Z,11.40
2019-05-09T21:52:45.165Z,11.40
2019-05-09T21:55:14.621Z,11.40
2019-05-09T21:57:44.062Z,11.40
2019-05-09T22:00:23.700Z,11.40
2019-05-09T22:02:53.071Z,11.50
2019-05-09T22:05:22.614Z,11.40
2019-05-09T22:07:52.268Z,11.40
2019-05-09T22:10:21.723Z,11.40
2019-05-09T22:12:51.113Z,11.50
2019-05-09T22:15:20.652Z,11.50
2019-05-09T22:17:50.040Z,11.50
2019-05-09T22:20:20.648Z,11.40
2019-05-09T22:22:53.084Z,11.40
2019-05-09T22:25:22.672Z,11.40
2019-05-09T22:27:53.857Z,11.50
2019-05-09T22:30:24.282Z,11.50
2019-05-09T22:32:53.668Z,11.50
2019-05-09T22:35:24.565Z,11.40
2019-05-09T22:37:54.011Z,11.40
2019-05-09T22:40:23.446Z,11.30
2019-05-09T22:42:52.852Z,11.30
2019-05-09T22:45:22.805Z,11.30
2019-05-09T22:47:52.298Z,11.20
2019-05-09T22:50:21.919Z,11.10
2019-05-09T22:52:52.027Z,11.10
2019-05-09T22:55:21.670Z,11.00
2019-05-09T22:57:55.714Z,10.80
2019-05-09T23:00:25.169Z,10.80
2019-05-09T23:02:54.533Z,10.70
2019-05-09T23:05:23.916Z,10.70
2019-05-09T23:07:53.305Z,10.80
2019-05-09T23:10:22.686Z,10.90
2019-05-09T23:12:52.082Z,10.90
2019-05-09T23:15:21.361Z,10.90
2019-05-09T23:17:50.735Z,10.90
2019-05-09T23:20:27.802Z,11.00
2019-05-09T23:22:58.875Z,10.90
2019-05-09T23:25:28.256Z,10.80
2019-05-09T23:27:57.636Z,10.70
2019-05-09T23:30:27.086Z,10.60
2019-05-09T23:32:56.451Z,10.60
2019-05-09T23:35:25.932Z,10.60
2019-05-09T23:37:55.296Z,10.60
2019-05-09T23:40:24.655Z,10.50
2019-05-09T23:42:54.050Z,10.50
2019-05-09T23:45:23.423Z,10.50
2019-05-09T23:47:52.814Z,10.40
2019-05-09T23:50:22.166Z,10.40
2019-05-09T23:52:51.553Z,10.30
2019-05-09T23:55:38.576Z,10.30
2019-05-09T23:58:25.626Z,10.20
